Lauro de Freitas, Brazil
Current Conditions -  °F | °C
As of 1:00 PM on Monday 24 Nov 2014 (Local Time) from SBSV Reporting Station
Few Clouds Few Clouds  
Wind Chill: 82°   Ceiling: Unl
Heat Index: 86°   Visibility: 6mi
Dew Point: 70°   Wind: 18mph
Humidity: 66%   Direction: 80°E
Pressure: 29.94"   Gusts: NA
Location:  12.89°S, 38.33°W
Report Text: SBSV 241600Z 08016KT 9999 FEW020 28/21 Q1014
Loading
Personal Weather Stations






























Interactive Weather Map New forecast layout! Learn more

10-Day Weather Forecast

Advertisements
Track Severe Weather on mobile